Time,TemperatureF,DewpointF,PressureIn,WindDirection,WindDirectionDegrees,WindSpeedMPH,WindSpeedGustMPH,Humidity,HourlyPrecipIn,Conditions,Clouds,dailyrainin,SoftwareType,DateUTC
2013-08-10 00:02:00,75.0,48.0,29.96,SE,130,2.0,5.0,38,0.00,,,0.00,,2013-08-10 06:02:00,
2013-08-10 00:11:00,75.0,48.0,29.97,SSE,154,1.0,3.0,38,0.00,,,0.00,,2013-08-10 06:11:00,
2013-08-10 00:22:00,75.0,48.0,29.98,SW,221,2.0,4.0,38,0.00,,,0.00,,2013-08-10 06:22:00,
2013-08-10 00:32:00,75.0,48.0,29.98,SE,146,3.0,4.0,39,0.00,,,0.00,,2013-08-10 06:32:00,
2013-08-10 00:44:00,74.0,47.0,29.97,ESE,113,2.0,5.0,39,0.00,,,0.00,,2013-08-10 06:44:00,
2013-08-10 00:52:00,74.0,48.0,29.97,SE,127,2.0,3.0,40,0.00,,,0.00,,2013-08-10 06:52:00,
2013-08-10 01:02:00,74.0,49.0,29.97,SE,125,4.0,5.0,41,0.00,,,0.00,,2013-08-10 07:02:00,
2013-08-10 01:12:00,73.0,49.0,29.96,SE,132,5.0,7.0,42,0.00,,,0.00,,2013-08-10 07:12:00,
2013-08-10 01:22:00,73.0,50.0,29.96,ESE,103,9.0,11.0,44,0.00,,,0.00,,2013-08-10 07:22:00,
2013-08-10 01:33:00,72.0,49.0,29.96,ESE,118,5.0,8.0,44,0.00,,,0.00,,2013-08-10 07:33:00,
2013-08-10 01:43:00,72.0,48.0,29.96,ESE,121,4.0,8.0,43,0.00,,,0.00,,2013-08-10 07:43:00,
2013-08-10 01:52:00,72.0,48.0,29.97,ESE,116,5.0,8.0,42,0.00,,,0.00,,2013-08-10 07:52:00,
2013-08-10 02:01:00,72.0,48.0,29.97,SE,126,5.0,6.0,42,0.00,,,0.00,,2013-08-10 08:01:00,
2013-08-10 02:12:00,72.0,48.0,29.97,SE,140,3.0,7.0,42,0.00,,,0.00,,2013-08-10 08:12:00,
2013-08-10 02:21:00,72.0,48.0,29.97,SE,127,3.0,6.0,42,0.00,,,0.00,,2013-08-10 08:21:00,
2013-08-10 02:32:00,72.0,47.0,29.97,SE,129,2.0,5.0,41,0.00,,,0.00,,2013-08-10 08:32:00,
2013-08-10 02:43:00,72.0,48.0,29.98,NE,45,1.0,3.0,42,0.00,,,0.00,,2013-08-10 08:43:00,
2013-08-10 02:52:00,71.0,49.0,29.98,NNW,341,3.0,5.0,45,0.00,,,0.00,,2013-08-10 08:52:00,
2013-08-10 03:02:00,71.0,51.0,29.99,NNW,344,5.0,7.0,49,0.00,,,0.00,,2013-08-10 09:02:00,
2013-08-10 03:12:00,70.0,50.0,29.99,NNW,334,3.0,5.0,50,0.00,,,0.00,,2013-08-10 09:12:00,
2013-08-10 03:21:00,70.0,52.0,29.99,North,350,6.0,8.0,52,0.00,,,0.00,,2013-08-10 09:21:00,
2013-08-10 03:32:00,69.0,50.0,30.00,NW,315,2.0,3.0,51,0.00,,,0.00,,2013-08-10 09:32:00,
2013-08-10 03:43:00,69.0,50.0,30.00,WNW,294,2.0,3.0,51,0.00,,,0.00,,2013-08-10 09:43:00,
2013-08-10 03:52:00,69.0,52.0,30.00,NNW,337,2.0,3.0,54,0.00,,,0.00,,2013-08-10 09:52:00,
2013-08-10 04:01:00,68.0,52.0,30.01,NNW,342,2.0,5.0,56,0.00,,,0.00,,2013-08-10 10:01:00,
2013-08-10 04:11:00,67.0,51.0,30.01,NW,321,1.0,4.0,56,0.00,,,0.00,,2013-08-10 10:11:00,
2013-08-10 04:22:00,67.0,51.0,30.01,NNW,347,2.0,3.0,57,0.00,,,0.00,,2013-08-10 10:22:00,
2013-08-10 04:33:00,67.0,52.0,30.01,NNW,329,3.0,5.0,59,0.00,,,0.00,,2013-08-10 10:33:00,
2013-08-10 04:44:00,67.0,52.0,30.00,NNW,328,4.0,5.0,59,0.00,,,0.00,,2013-08-10 10:44:00,
2013-08-10 04:52:00,66.0,52.0,30.01,North,353,2.0,5.0,60,0.00,,,0.00,,2013-08-10 10:52:00,
2013-08-10 05:02:00,66.0,51.0,30.01,NNE,18,1.0,2.0,59,0.00,,,0.00,,2013-08-10 11:02:00,
2013-08-10 05:11:00,66.0,51.0,30.02,North,0,0.0,0.0,58,0.00,,,0.00,,2013-08-10 11:11:00,
2013-08-10 05:22:00,65.0,52.0,30.02,NNW,333,2.0,3.0,62,0.00,,,0.00,,2013-08-10 11:22:00,
2013-08-10 05:33:00,65.0,52.0,30.02,North,350,2.0,3.0,62,0.00,,,0.00,,2013-08-10 11:33:00,
2013-08-10 05:43:00,65.0,51.0,30.02,NW,306,1.0,3.0,61,0.00,,,0.00,,2013-08-10 11:43:00,
2013-08-10 05:52:00,65.0,52.0,30.03,North,350,2.0,3.0,62,0.00,,,0.00,,2013-08-10 11:52:00,
2013-08-10 06:01:00,65.0,51.0,30.03,NW,317,1.0,2.0,61,0.00,,,0.00,,2013-08-10 12:01:00,
2013-08-10 06:11:00,65.0,51.0,30.03,NW,312,2.0,3.0,61,0.00,,,0.00,,2013-08-10 12:11:00,
2013-08-10 06:22:00,65.0,51.0,30.03,NW,323,2.0,3.0,61,0.00,,,0.00,,2013-08-10 12:22:00,
2013-08-10 06:32:00,64.0,50.0,30.04,WNW,294,1.0,3.0,61,0.00,,,0.00,,2013-08-10 12:32:00,
2013-08-10 06:42:00,64.0,50.0,30.04,WNW,282,1.0,2.0,61,0.00,,,0.00,,2013-08-10 12:42:00,
2013-08-10 07:01:00,64.0,51.0,30.05,NNW,338,1.0,3.0,62,0.00,,,0.00,,2013-08-10 13:01:00,
2013-08-10 07:11:00,64.0,51.0,30.05,NNW,346,1.0,2.0,63,0.00,,,0.00,,2013-08-10 13:11:00,
2013-08-10 07:21:00,64.0,52.0,30.05,North,356,1.0,2.0,64,0.00,,,0.00,,2013-08-10 13:21:00,
2013-08-10 07:32:00,64.0,52.0,30.06,North,349,2.0,3.0,64,0.00,,,0.00,,2013-08-10 13:32:00,
2013-08-10 07:43:00,64.0,52.0,30.06,North,359,1.0,3.0,64,0.00,,,0.00,,2013-08-10 13:43:00,
2013-08-10 07:52:00,64.0,51.0,30.06,North,353,2.0,3.0,63,0.00,,,0.00,,2013-08-10 13:52:00,
2013-08-10 08:02:00,64.0,51.0,30.06,NNW,336,2.0,4.0,63,0.00,,,0.00,,2013-08-10 14:02:00,
2013-08-10 08:12:00,64.0,51.0,30.06,North,357,1.0,3.0,63,0.00,,,0.00,,2013-08-10 14:12:00,
2013-08-10 08:22:00,64.0,51.0,30.07,NNW,345,1.0,4.0,63,0.00,,,0.00,,2013-08-10 14:22:00,
2013-08-10 08:32:00,64.0,51.0,30.07,NNW,339,3.0,4.0,62,0.00,,,0.00,,2013-08-10 14:32:00,
2013-08-10 08:42:00,65.0,52.0,30.07,NNW,340,2.0,4.0,62,0.00,,,0.00,,2013-08-10 14:42:00,
2013-08-10 08:53:00,65.0,52.0,30.07,NNW,346,2.0,4.0,62,0.00,,,0.00,,2013-08-10 14:53:00,
2013-08-10 09:02:00,65.0,51.0,30.07,NNE,28,1.0,4.0,61,0.00,,,0.00,,2013-08-10 15:02:00,
2013-08-10 09:11:00,66.0,52.0,30.07,NNW,338,1.0,3.0,60,0.00,,,0.00,,2013-08-10 15:11:00,
2013-08-10 09:22:00,67.0,52.0,30.07,North,355,2.0,3.0,59,0.00,,,0.00,,2013-08-10 15:22:00,
2013-08-10 09:33:00,67.0,51.0,30.08,NNW,335,1.0,3.0,57,0.00,,,0.00,,2013-08-10 15:33:00,
2013-08-10 09:43:00,68.0,52.0,30.07,NNW,332,2.0,3.0,56,0.00,,,0.00,,2013-08-10 15:43:00,
2013-08-10 09:52:00,69.0,52.0,30.08,East,99,3.0,4.0,55,0.00,,,0.00,,2013-08-10 15:52:00,
2013-08-10 10:01:00,71.0,53.0,30.08,South,172,1.0,3.0,53,0.00,,,0.00,,2013-08-10 16:01:00,
2013-08-10 10:11:00,72.0,52.0,30.08,SSE,156,3.0,4.0,50,0.00,,,0.00,,2013-08-10 16:11:00,
2013-08-10 10:22:00,74.0,53.0,30.08,NNW,338,1.0,3.0,48,0.00,,,0.00,,2013-08-10 16:22:00,
2013-08-10 10:32:00,75.0,53.0,30.07,SE,139,4.0,5.0,47,0.00,,,0.00,,2013-08-10 16:32:00,
2013-08-10 10:43:00,76.0,53.0,30.07,SW,222,3.0,6.0,45,0.00,,,0.00,,2013-08-10 16:43:00,
2013-08-10 10:53:00,76.0,53.0,30.07,WSW,243,2.0,5.0,45,0.00,,,0.00,,2013-08-10 16:53:00,
2013-08-10 11:02:00,77.0,52.0,30.07,South,181,3.0,6.0,42,0.00,,,0.00,,2013-08-10 17:02:00,
2013-08-10 11:12:00,77.0,52.0,30.07,NW,320,2.0,6.0,42,0.00,,,0.00,,2013-08-10 17:12:00,
2013-08-10 11:22:00,77.0,52.0,30.07,SW,217,3.0,5.0,42,0.00,,,0.00,,2013-08-10 17:22:00,
2013-08-10 11:33:00,79.0,52.0,30.07,WSW,251,3.0,8.0,39,0.00,,,0.00,,2013-08-10 17:33:00,
2013-08-10 11:43:00,79.0,52.0,30.06,WNW,283,4.0,5.0,39,0.00,,,0.00,,2013-08-10 17:43:00,
2013-08-10 11:52:00,80.0,53.0,30.06,SE,140,5.0,6.0,39,0.00,,,0.00,,2013-08-10 17:52:00,
2013-08-10 12:01:00,81.0,53.0,30.06,WSW,244,2.0,7.0,38,0.00,,,0.00,,2013-08-10 18:01:00,
2013-08-10 12:11:00,81.0,53.0,30.06,SSW,211,2.0,4.0,38,0.00,,,0.00,,2013-08-10 18:11:00,
2013-08-10 12:23:00,82.0,53.0,30.05,West,271,4.0,8.0,37,0.00,,,0.00,,2013-08-10 18:23:00,
2013-08-10 12:32:00,83.0,52.0,30.05,WSW,257,4.0,8.0,34,0.00,,,0.00,,2013-08-10 18:32:00,
2013-08-10 12:43:00,83.0,52.0,30.05,SSE,152,3.0,6.0,34,0.00,,,0.00,,2013-08-10 18:43:00,
2013-08-10 12:52:00,83.0,52.0,30.04,SSW,210,3.0,6.0,35,0.00,,,0.00,,2013-08-10 18:52:00,
2013-08-10 13:01:00,84.0,53.0,30.03,East,82,2.0,5.0,35,0.00,,,0.00,,2013-08-10 19:01:00,
2013-08-10 13:11:00,85.0,53.0,30.02,SE,136,3.0,7.0,34,0.00,,,0.00,,2013-08-10 19:11:00,
2013-08-10 13:22:00,84.0,53.0,30.01,SW,230,2.0,5.0,34,0.00,,,0.00,,2013-08-10 19:22:00,
2013-08-10 13:32:00,85.0,53.0,30.00,SE,144,6.0,9.0,33,0.00,,,0.00,,2013-08-10 19:32:00,
2013-08-10 13:44:00,86.0,54.0,30.00,SE,126,3.0,9.0,33,0.00,,,0.00,,2013-08-10 19:44:00,
2013-08-10 13:53:00,86.0,52.0,30.00,SSE,166,7.0,9.0,31,0.00,,,0.00,,2013-08-10 19:53:00,
2013-08-10 14:01:00,86.0,53.0,30.00,SW,219,4.0,8.0,32,0.00,,,0.00,,2013-08-10 20:01:00,
2013-08-10 14:11:00,87.0,54.0,30.00,ESE,118,4.0,9.0,32,0.00,,,0.00,,2013-08-10 20:11:00,
2013-08-10 14:22:00,87.0,53.0,30.00,SSW,195,3.0,9.0,31,0.00,,,0.00,,2013-08-10 20:22:00,
2013-08-10 14:33:00,87.0,53.0,30.00,SW,215,4.0,8.0,31,0.00,,,0.00,,2013-08-10 20:33:00,
2013-08-10 14:43:00,87.0,54.0,29.99,South,178,4.0,8.0,32,0.00,,,0.00,,2013-08-10 20:43:00,
2013-08-10 14:53:00,88.0,53.0,29.99,WSW,240,4.0,10.0,30,0.00,,,0.00,,2013-08-10 20:53:00,
2013-08-10 15:02:00,89.0,54.0,29.99,WSW,248,5.0,9.0,30,0.00,,,0.00,,2013-08-10 21:02:00,
2013-08-10 15:22:00,89.0,53.0,29.99,South,182,3.0,8.0,29,0.00,,,0.00,,2013-08-10 21:22:00,
2013-08-10 15:32:00,89.0,54.0,29.98,SSW,207,3.0,10.0,30,0.00,,,0.00,,2013-08-10 21:32:00,
2013-08-10 15:42:00,89.0,54.0,29.97,SSW,213,5.0,13.0,30,0.00,,,0.00,,2013-08-10 21:42:00,
2013-08-10 15:52:00,89.0,54.0,29.96,SW,235,6.0,12.0,30,0.00,,,0.00,,2013-08-10 21:52:00,
2013-08-10 16:01:00,89.0,54.0,29.96,SSW,202,5.0,12.0,30,0.00,,,0.00,,2013-08-10 22:01:00,
2013-08-10 16:11:00,88.0,54.0,29.96,SW,231,8.0,12.0,31,0.00,,,0.00,,2013-08-10 22:11:00,
2013-08-10 16:21:00,87.0,54.0,29.96,SW,231,6.0,10.0,32,0.00,,,0.00,,2013-08-10 22:21:00,
2013-08-10 16:32:00,86.0,54.0,29.96,WSW,252,5.0,8.0,33,0.00,,,0.00,,2013-08-10 22:32:00,
2013-08-10 16:43:00,86.0,54.0,29.97,SW,228,6.0,10.0,33,0.00,,,0.00,,2013-08-10 22:43:00,
2013-08-10 17:01:00,85.0,54.0,29.97,SSW,196,5.0,8.0,35,0.00,,,0.00,,2013-08-10 23:01:00,
2013-08-10 17:12:00,84.0,53.0,29.97,SSW,208,2.0,9.0,35,0.00,,,0.00,,2013-08-10 23:12:00,
2013-08-10 17:22:00,84.0,53.0,29.97,WSW,252,7.0,9.0,35,0.00,,,0.00,,2013-08-10 23:22:00,
2013-08-10 17:32:00,83.0,54.0,29.97,WSW,241,4.0,8.0,37,0.00,,,0.00,,2013-08-10 23:32:00,
2013-08-10 17:43:00,83.0,54.0,29.98,SW,218,3.0,10.0,37,0.00,,,0.00,,2013-08-10 23:43:00,
2013-08-10 17:53:00,83.0,54.0,29.97,SSW,194,2.0,7.0,37,0.00,,,0.00,,2013-08-10 23:53:00,
2013-08-10 18:01:00,83.0,55.0,29.97,South,175,2.0,6.0,38,0.00,,,0.00,,2013-08-11 00:01:00,
2013-08-10 18:11:00,82.0,55.0,29.97,SSW,198,3.0,5.0,39,0.00,,,0.00,,2013-08-11 00:11:00,
2013-08-10 18:22:00,82.0,50.0,29.98,WNW,296,6.0,9.0,33,0.00,,,0.00,,2013-08-11 00:22:00,
2013-08-10 18:32:00,80.0,47.0,29.99,NW,309,5.0,8.0,31,0.00,,,0.00,,2013-08-11 00:32:00,
2013-08-10 18:42:00,80.0,46.0,29.99,NW,317,5.0,7.0,30,0.00,,,0.00,,2013-08-11 00:42:00,
2013-08-10 18:52:00,79.0,45.0,29.98,NW,307,5.0,7.0,30,0.00,,,0.00,,2013-08-11 00:52:00,
2013-08-10 19:01:00,79.0,46.0,30.00,WNW,287,2.0,8.0,31,0.00,,,0.00,,2013-08-11 01:01:00,
2013-08-10 19:11:00,79.0,46.0,30.00,NW,308,2.0,6.0,31,0.00,,,0.00,,2013-08-11 01:11:00,
2013-08-10 19:22:00,78.0,45.0,30.00,NW,316,9.0,13.0,31,0.00,,,0.00,,2013-08-11 01:22:00,
2013-08-10 19:32:00,76.0,46.0,30.00,NNW,336,9.0,14.0,35,0.00,,,0.00,,2013-08-11 01:32:00,
2013-08-10 19:43:00,75.0,48.0,30.03,NNW,336,10.0,15.0,38,0.00,,,0.00,,2013-08-11 01:43:00,
2013-08-10 19:53:00,74.0,49.0,30.04,NNW,345,7.0,11.0,41,0.00,,,0.00,,2013-08-11 01:53:00,
2013-08-10 20:02:00,72.0,49.0,30.04,North,352,6.0,11.0,45,0.00,,,0.00,,2013-08-11 02:02:00,
2013-08-10 20:11:00,70.0,49.0,30.04,North,351,10.0,15.0,48,0.00,,,0.00,,2013-08-11 02:11:00,
2013-08-10 20:22:00,69.0,48.0,30.05,North,353,10.0,14.0,48,0.00,,,0.00,,2013-08-11 02:22:00,
2013-08-10 20:32:00,68.0,49.0,30.06,NW,304,6.0,13.0,50,0.00,,,0.00,,2013-08-11 02:32:00,
2013-08-10 20:43:00,69.0,49.0,30.06,NNW,329,9.0,13.0,49,0.00,,,0.00,,2013-08-11 02:43:00,
2013-08-10 20:55:00,68.0,50.0,30.05,NNW,345,8.0,17.0,53,0.00,,,0.00,,2013-08-11 02:55:00,
2013-08-10 21:04:00,68.0,51.0,30.03,North,7,6.0,9.0,54,0.00,,,0.00,,2013-08-11 03:04:00,
2013-08-10 21:25:00,67.0,48.0,30.04,North,353,8.0,15.0,51,0.00,,,0.00,,2013-08-11 03:25:00,
2013-08-10 21:34:00,67.0,48.0,30.05,NNW,347,5.0,11.0,51,0.00,,,0.00,,2013-08-11 03:34:00,
2013-08-10 21:43:00,67.0,48.0,30.06,North,352,3.0,11.0,51,0.00,,,0.00,,2013-08-11 03:43:00,
2013-08-10 21:54:00,67.0,50.0,30.07,NW,307,5.0,9.0,54,0.00,,,0.00,,2013-08-11 03:54:00,
2013-08-10 22:01:00,67.0,53.0,30.07,NW,309,8.0,10.0,60,0.00,,,0.00,,2013-08-11 04:01:00,
2013-08-10 22:12:00,65.0,53.0,30.06,NNW,347,8.0,13.0,65,0.01,,,0.01,,2013-08-11 04:12:00,
2013-08-10 22:22:00,65.0,53.0,30.04,North,1,9.0,11.0,64,0.01,,,0.01,,2013-08-11 04:22:00,
2013-08-10 22:32:00,65.0,53.0,30.04,NNW,346,9.0,11.0,64,0.01,,,0.01,,2013-08-11 04:32:00,
2013-08-10 22:42:00,65.0,53.0,30.04,North,0,6.0,12.0,65,0.01,,,0.01,,2013-08-11 04:42:00,
2013-08-10 22:53:00,65.0,53.0,30.04,NNE,30,2.0,9.0,64,0.01,,,0.01,,2013-08-11 04:53:00,
2013-08-10 23:02:00,65.0,52.0,30.04,North,10,1.0,5.0,62,0.01,,,0.01,,2013-08-11 05:02:00,
2013-08-10 23:16:00,66.0,52.0,30.04,SE,132,1.0,2.0,61,0.00,,,0.01,,2013-08-11 05:16:00,
2013-08-10 23:23:00,66.0,52.0,30.04,SW,225,1.0,3.0,60,0.00,,,0.01,,2013-08-11 05:23:00,
2013-08-10 23:35:00,66.0,52.0,30.04,SW,225,1.0,2.0,61,0.00,,,0.01,,2013-08-11 05:35:00,
2013-08-10 23:44:00,66.0,52.0,30.05,WSW,240,4.0,5.0,61,0.00,,,0.01,,2013-08-11 05:44:00,
2013-08-10 23:53:00,66.0,53.0,30.06,SW,234,5.0,7.0,62,0.00,,,0.01,,2013-08-11 05:53:00,